Capitol Logistics 574




RJAA
Tokyo-Narita International Airport
Tokyo, JP
WSSS
Changi International Airport
Singapore, SG

Activity Log

Date Flight Route Aircraft Duration
05/23/2022 CPX574 OLVAN2 SAMUS/N0497F340 Y84 BUBDO A590 MUPOB/N0495F360 A590 JOM M767 TOMAN KART1B B744 6h 46m
04/01/2022 CPX574 OLVAN2 SAMUS Y84 BUBDO A590 JOM M767 TOMAN KART1A MD11 7h 19m

Route Details

Aircraft Information
Group: Trans-Pacific Ops
Types: B744,B763,MD11
Route Data
Demand: V
Distance: 2896nm
Duration: 7h 15m
Recm'd Route: OLVAN2 SAMUS Y84 BUBDO A590 JOM M767 TOMAN KART1A
Origin Wx: RJAA 272230Z VRB02KT 9999 FEW015 SCT100 21/16 Q1000 NOSIG RMK 1CU015 4AC100 A2955
Dest. Wx: WSSS 272230Z VRB02KT 9999 FEW015 FEW018CB BKN280 27/25 Q1008 NOSIG
Notes:

Financial History
Total Freight: 321,700lbs
Average Load: 160,850lbs/flt
Fuel Used: 253,847lbs
Avg. Fuel Used: 126,924lbs/flt
Fuel Expense: $160,904
Avg. Fuel Expense: $80,452
Avg. Fuel Cost: $0.62/lbs
Total Gross Income: $891,109
Pilot Pay: $498
Total Expenses: $110,490
Total Revenue: $616,307
Average Revenue: $445,554.52